sensor_id;sensor_type;location;lat;lon;timestamp;P1;durP1;ratioP1;P2;durP2;ratioP2
26223;SDS011;14820;48.682;8.890;2023-02-15T00:01:15;33.17;;;16.92;;
26223;SDS011;14820;48.682;8.890;2023-02-15T00:03:40;36.80;;;18.75;;
26223;SDS011;14820;48.682;8.890;2023-02-15T00:06:06;37.42;;;17.20;;
26223;SDS011;14820;48.682;8.890;2023-02-15T00:08:32;32.58;;;18.02;;
26223;SDS011;14820;48.682;8.890;2023-02-15T00:11:11;32.33;;;17.45;;
26223;SDS011;14820;48.682;8.890;2023-02-15T00:13:38;34.60;;;17.30;;
26223;SDS011;14820;48.682;8.890;2023-02-15T00:16:11;30.25;;;16.60;;
26223;SDS011;14820;48.682;8.890;2023-02-15T00:18:40;28.63;;;16.55;;
26223;SDS011;14820;48.682;8.890;2023-02-15T00:21:07;30.80;;;16.45;;
26223;SDS011;14820;48.682;8.890;2023-02-15T00:23:34;31.23;;;16.33;;
26223;SDS011;14820;48.682;8.890;2023-02-15T00:26:19;31.55;;;16.23;;
26223;SDS011;14820;48.682;8.890;2023-02-15T00:28:44;28.77;;;16.77;;
26223;SDS011;14820;48.682;8.890;2023-02-15T00:31:10;37.42;;;16.17;;
26223;SDS011;14820;48.682;8.890;2023-02-15T00:33:37;32.95;;;16.90;;
26223;SDS011;14820;48.682;8.890;2023-02-15T00:36:05;30.75;;;17.05;;
26223;SDS011;14820;48.682;8.890;2023-02-15T00:38:32;34.40;;;17.25;;
26223;SDS011;14820;48.682;8.890;2023-02-15T00:40:59;27.77;;;15.98;;
26223;SDS011;14820;48.682;8.890;2023-02-15T00:43:27;33.33;;;16.48;;
26223;SDS011;14820;48.682;8.890;2023-02-15T00:45:54;31.33;;;16.25;;
26223;SDS011;14820;48.682;8.890;2023-02-15T00:48:21;35.55;;;16.23;;
26223;SDS011;14820;48.682;8.890;2023-02-15T00:50:50;31.58;;;15.68;;
26223;SDS011;14820;48.682;8.890;2023-02-15T00:53:17;31.98;;;15.73;;
26223;SDS011;14820;48.682;8.890;2023-02-15T00:55:43;28.27;;;15.70;;
26223;SDS011;14820;48.682;8.890;2023-02-15T00:58:09;32.17;;;16.20;;
26223;SDS011;14820;48.682;8.890;2023-02-15T01:00:36;30.52;;;15.43;;
26223;SDS011;14820;48.682;8.890;2023-02-15T01:03:03;30.27;;;15.75;;
26223;SDS011;14820;48.682;8.890;2023-02-15T01:05:29;31.88;;;15.48;;
26223;SDS011;14820;48.682;8.890;2023-02-15T01:07:57;27.63;;;14.15;;
26223;SDS011;14820;48.682;8.890;2023-02-15T01:10:23;30.58;;;16.10;;
26223;SDS011;14820;48.682;8.890;2023-02-15T01:12:50;30.00;;;16.48;;
26223;SDS011;14820;48.682;8.890;2023-02-15T01:15:16;33.10;;;16.48;;
26223;SDS011;14820;48.682;8.890;2023-02-15T01:17:42;28.90;;;15.30;;
26223;SDS011;14820;48.682;8.890;2023-02-15T01:20:10;30.75;;;15.90;;
26223;SDS011;14820;48.682;8.890;2023-02-15T01:22:37;29.73;;;16.08;;
26223;SDS011;14820;48.682;8.890;2023-02-15T01:25:02;31.20;;;15.18;;
26223;SDS011;14820;48.682;8.890;2023-02-15T01:27:28;29.52;;;15.40;;
26223;SDS011;14820;48.682;8.890;2023-02-15T01:29:56;31.98;;;16.08;;
26223;SDS011;14820;48.682;8.890;2023-02-15T01:32:21;32.20;;;15.70;;
26223;SDS011;14820;48.682;8.890;2023-02-15T01:34:47;28.45;;;15.13;;
26223;SDS011;14820;48.682;8.890;2023-02-15T01:37:13;24.83;;;14.25;;
26223;SDS011;14820;48.682;8.890;2023-02-15T01:39:39;30.55;;;15.13;;
26223;SDS011;14820;48.682;8.890;2023-02-15T01:42:04;28.83;;;15.02;;
26223;SDS011;14820;48.682;8.890;2023-02-15T01:47:42;24.98;;;14.15;;
26223;SDS011;14820;48.682;8.890;2023-02-15T01:50:42;26.85;;;15.15;;
26223;SDS011;14820;48.682;8.890;2023-02-15T01:55:42;26.67;;;14.43;;
26223;SDS011;14820;48.682;8.890;2023-02-15T01:58:14;26.58;;;14.05;;
26223;SDS011;14820;48.682;8.890;2023-02-15T02:00:40;29.23;;;13.52;;
26223;SDS011;14820;48.682;8.890;2023-02-15T02:03:06;25.55;;;13.90;;
26223;SDS011;14820;48.682;8.890;2023-02-15T02:05:32;22.90;;;12.60;;
26223;SDS011;14820;48.682;8.890;2023-02-15T02:07:59;27.52;;;14.02;;
26223;SDS011;14820;48.682;8.890;2023-02-15T02:10:27;32.08;;;14.35;;
26223;SDS011;14820;48.682;8.890;2023-02-15T02:12:57;29.27;;;14.23;;
26223;SDS011;14820;48.682;8.890;2023-02-15T02:15:28;25.35;;;13.77;;
26223;SDS011;14820;48.682;8.890;2023-02-15T02:18:15;26.83;;;14.02;;
26223;SDS011;14820;48.682;8.890;2023-02-15T02:23:33;27.60;;;13.57;;
26223;SDS011;14820;48.682;8.890;2023-02-15T02:34:51;34.58;;;13.75;;
26223;SDS011;14820;48.682;8.890;2023-02-15T02:40:15;25.35;;;13.55;;
26223;SDS011;14820;48.682;8.890;2023-02-15T02:46:17;30.05;;;14.13;;
26223;SDS011;14820;48.682;8.890;2023-02-15T02:48:45;41.88;;;17.58;;
26223;SDS011;14820;48.682;8.890;2023-02-15T02:51:12;36.50;;;16.20;;
26223;SDS011;14820;48.682;8.890;2023-02-15T02:53:39;26.52;;;13.85;;
26223;SDS011;14820;48.682;8.890;2023-02-15T02:56:06;34.42;;;15.63;;
26223;SDS011;14820;48.682;8.890;2023-02-15T02:58:41;34.10;;;15.75;;
26223;SDS011;14820;48.682;8.890;2023-02-15T03:04:01;32.53;;;14.90;;
26223;SDS011;14820;48.682;8.890;2023-02-15T03:06:36;28.90;;;14.63;;
26223;SDS011;14820;48.682;8.890;2023-02-15T03:09:12;25.92;;;13.95;;
26223;SDS011;14820;48.682;8.890;2023-02-15T03:11:43;27.77;;;13.07;;
26223;SDS011;14820;48.682;8.890;2023-02-15T03:14:10;29.13;;;13.73;;
26223;SDS011;14820;48.682;8.890;2023-02-15T03:16:38;26.40;;;13.20;;
26223;SDS011;14820;48.682;8.890;2023-02-15T03:19:16;25.50;;;12.73;;
26223;SDS011;14820;48.682;8.890;2023-02-15T03:21:49;37.17;;;16.13;;
26223;SDS011;14820;48.682;8.890;2023-02-15T03:24:35;40.90;;;18.48;;
26223;SDS011;14820;48.682;8.890;2023-02-15T03:27:22;42.63;;;19.73;;
26223;SDS011;14820;48.682;8.890;2023-02-15T03:29:53;35.55;;;17.40;;
26223;SDS011;14820;48.682;8.890;2023-02-15T03:32:23;27.80;;;15.55;;
26223;SDS011;14820;48.682;8.890;2023-02-15T03:34:53;28.65;;;14.27;;
26223;SDS011;14820;48.682;8.890;2023-02-15T03:37:23;27.33;;;13.60;;
26223;SDS011;14820;48.682;8.890;2023-02-15T03:48:53;22.25;;;12.23;;
26223;SDS011;14820;48.682;8.890;2023-02-15T03:51:23;23.55;;;11.68;;
26223;SDS011;14820;48.682;8.890;2023-02-15T03:56:30;22.27;;;11.90;;
26223;SDS011;14820;48.682;8.890;2023-02-15T03:58:57;21.40;;;12.00;;
26223;SDS011;14820;48.682;8.890;2023-02-15T04:04:23;33.80;;;13.20;;
26223;SDS011;14820;48.682;8.890;2023-02-15T04:06:50;38.25;;;15.52;;
26223;SDS011;14820;48.682;8.890;2023-02-15T04:09:18;30.75;;;13.38;;
26223;SDS011;14820;48.682;8.890;2023-02-15T04:12:05;24.45;;;12.15;;
26223;SDS011;14820;48.682;8.890;2023-02-15T04:14:34;21.27;;;12.07;;
26223;SDS011;14820;48.682;8.890;2023-02-15T04:17:22;22.85;;;11.65;;
26223;SDS011;14820;48.682;8.890;2023-02-15T04:19:51;26.75;;;11.93;;
26223;SDS011;14820;48.682;8.890;2023-02-15T04:22:38;23.98;;;12.10;;
26223;SDS011;14820;48.682;8.890;2023-02-15T04:25:24;21.50;;;11.32;;
26223;SDS011;14820;48.682;8.890;2023-02-15T04:27:53;22.60;;;11.88;;
26223;SDS011;14820;48.682;8.890;2023-02-15T04:30:24;23.63;;;12.40;;
26223;SDS011;14820;48.682;8.890;2023-02-15T04:32:53;19.90;;;12.07;;
26223;SDS011;14820;48.682;8.890;2023-02-15T04:35:26;22.25;;;12.45;;
26223;SDS011;14820;48.682;8.890;2023-02-15T04:37:56;22.83;;;13.23;;
26223;SDS011;14820;48.682;8.890;2023-02-15T04:40:22;24.48;;;12.48;;
26223;SDS011;14820;48.682;8.890;2023-02-15T04:42:48;19.75;;;12.57;;
26223;SDS011;14820;48.682;8.890;2023-02-15T04:45:14;22.70;;;11.85;;
26223;SDS011;14820;48.682;8.890;2023-02-15T04:47:41;21.60;;;11.88;;
26223;SDS011;14820;48.682;8.890;2023-02-15T04:50:07;19.52;;;11.43;;
26223;SDS011;14820;48.682;8.890;2023-02-15T04:52:33;20.95;;;11.43;;
26223;SDS011;14820;48.682;8.890;2023-02-15T04:54:59;26.58;;;12.18;;
26223;SDS011;14820;48.682;8.890;2023-02-15T04:57:25;20.02;;;11.50;;
26223;SDS011;14820;48.682;8.890;2023-02-15T04:59:51;21.08;;;11.55;;
26223;SDS011;14820;48.682;8.890;2023-02-15T05:02:17;23.65;;;12.10;;
26223;SDS011;14820;48.682;8.890;2023-02-15T05:04:43;21.15;;;11.45;;
26223;SDS011;14820;48.682;8.890;2023-02-15T05:07:09;19.88;;;11.60;;
26223;SDS011;14820;48.682;8.890;2023-02-15T05:09:35;18.77;;;10.43;;
26223;SDS011;14820;48.682;8.890;2023-02-15T05:12:01;22.45;;;11.70;;
26223;SDS011;14820;48.682;8.890;2023-02-15T05:14:28;22.58;;;12.00;;
26223;SDS011;14820;48.682;8.890;2023-02-15T05:16:54;25.67;;;13.93;;
26223;SDS011;14820;48.682;8.890;2023-02-15T05:19:20;23.50;;;12.70;;
26223;SDS011;14820;48.682;8.890;2023-02-15T05:21:48;21.55;;;12.35;;
26223;SDS011;14820;48.682;8.890;2023-02-15T05:24:14;17.20;;;10.52;;
26223;SDS011;14820;48.682;8.890;2023-02-15T05:26:58;21.40;;;10.77;;
26223;SDS011;14820;48.682;8.890;2023-02-15T05:29:43;20.27;;;11.03;;
26223;SDS011;14820;48.682;8.890;2023-02-15T05:32:09;21.08;;;11.00;;
26223;SDS011;14820;48.682;8.890;2023-02-15T05:34:35;23.65;;;11.82;;
26223;SDS011;14820;48.682;8.890;2023-02-15T05:37:01;23.70;;;13.10;;
26223;SDS011;14820;48.682;8.890;2023-02-15T05:39:27;23.67;;;12.27;;
26223;SDS011;14820;48.682;8.890;2023-02-15T05:41:53;22.98;;;12.35;;
26223;SDS011;14820;48.682;8.890;2023-02-15T05:44:19;23.17;;;11.48;;
26223;SDS011;14820;48.682;8.890;2023-02-15T05:46:45;20.98;;;11.60;;
26223;SDS011;14820;48.682;8.890;2023-02-15T05:49:11;24.13;;;12.13;;
26223;SDS011;14820;48.682;8.890;2023-02-15T05:51:37;24.40;;;12.50;;
26223;SDS011;14820;48.682;8.890;2023-02-15T05:54:03;24.98;;;12.05;;
26223;SDS011;14820;48.682;8.890;2023-02-15T05:56:29;20.20;;;11.23;;
26223;SDS011;14820;48.682;8.890;2023-02-15T05:58:55;19.30;;;11.40;;
26223;SDS011;14820;48.682;8.890;2023-02-15T06:01:21;17.67;;;11.30;;
26223;SDS011;14820;48.682;8.890;2023-02-15T06:03:47;23.45;;;11.55;;
26223;SDS011;14820;48.682;8.890;2023-02-15T06:06:13;21.77;;;11.38;;
26223;SDS011;14820;48.682;8.890;2023-02-15T06:08:40;19.70;;;10.55;;
26223;SDS011;14820;48.682;8.890;2023-02-15T06:11:06;23.08;;;11.45;;
26223;SDS011;14820;48.682;8.890;2023-02-15T06:13:32;20.00;;;10.95;;
26223;SDS011;14820;48.682;8.890;2023-02-15T06:15:58;18.30;;;10.52;;
26223;SDS011;14820;48.682;8.890;2023-02-15T06:18:25;19.98;;;11.43;;
26223;SDS011;14820;48.682;8.890;2023-02-15T06:20:51;21.38;;;11.05;;
26223;SDS011;14820;48.682;8.890;2023-02-15T06:23:17;17.40;;;10.13;;
26223;SDS011;14820;48.682;8.890;2023-02-15T06:25:44;23.90;;;10.90;;
26223;SDS011;14820;48.682;8.890;2023-02-15T06:28:10;22.42;;;11.23;;
26223;SDS011;14820;48.682;8.890;2023-02-15T06:30:36;20.92;;;11.27;;
26223;SDS011;14820;48.682;8.890;2023-02-15T06:33:02;19.75;;;11.60;;
26223;SDS011;14820;48.682;8.890;2023-02-15T06:35:28;19.88;;;11.10;;
26223;SDS011;14820;48.682;8.890;2023-02-15T06:37:54;21.52;;;11.50;;
26223;SDS011;14820;48.682;8.890;2023-02-15T06:40:20;19.65;;;11.20;;
26223;SDS011;14820;48.682;8.890;2023-02-15T06:42:46;22.63;;;11.43;;
26223;SDS011;14820;48.682;8.890;2023-02-15T06:45:12;22.42;;;11.73;;
26223;SDS011;14820;48.682;8.890;2023-02-15T06:47:38;22.55;;;12.40;;
26223;SDS011;14820;48.682;8.890;2023-02-15T06:50:04;25.02;;;11.98;;
26223;SDS011;14820;48.682;8.890;2023-02-15T06:52:30;22.67;;;11.32;;
26223;SDS011;14820;48.682;8.890;2023-02-15T06:54:56;20.30;;;11.90;;
26223;SDS011;14820;48.682;8.890;2023-02-15T06:57:22;19.95;;;10.90;;
26223;SDS011;14820;48.682;8.890;2023-02-15T06:59:48;23.30;;;11.60;;
26223;SDS011;14820;48.682;8.890;2023-02-15T07:02:14;22.83;;;11.45;;
26223;SDS011;14820;48.682;8.890;2023-02-15T07:04:40;22.80;;;12.05;;
26223;SDS011;14820;48.682;8.890;2023-02-15T07:07:10;22.20;;;11.65;;
26223;SDS011;14820;48.682;8.890;2023-02-15T07:09:36;23.80;;;12.15;;
26223;SDS011;14820;48.682;8.890;2023-02-15T07:12:02;19.67;;;10.70;;
26223;SDS011;14820;48.682;8.890;2023-02-15T07:14:47;18.83;;;11.10;;
26223;SDS011;14820;48.682;8.890;2023-02-15T07:17:13;21.10;;;11.95;;
26223;SDS011;14820;48.682;8.890;2023-02-15T07:19:39;20.20;;;11.05;;
26223;SDS011;14820;48.682;8.890;2023-02-15T07:22:05;26.60;;;11.05;;
26223;SDS011;14820;48.682;8.890;2023-02-15T07:24:31;17.02;;;10.77;;
26223;SDS011;14820;48.682;8.890;2023-02-15T07:26:57;19.25;;;11.18;;
26223;SDS011;14820;48.682;8.890;2023-02-15T07:29:23;19.58;;;11.15;;
26223;SDS011;14820;48.682;8.890;2023-02-15T07:31:49;19.92;;;10.85;;
26223;SDS011;14820;48.682;8.890;2023-02-15T07:34:15;19.85;;;11.00;;
26223;SDS011;14820;48.682;8.890;2023-02-15T07:36:42;25.17;;;11.80;;
26223;SDS011;14820;48.682;8.890;2023-02-15T07:39:11;24.15;;;12.80;;
26223;SDS011;14820;48.682;8.890;2023-02-15T07:41:37;23.42;;;13.05;;
26223;SDS011;14820;48.682;8.890;2023-02-15T07:44:03;26.95;;;13.20;;
26223;SDS011;14820;48.682;8.890;2023-02-15T07:46:29;24.48;;;12.48;;
26223;SDS011;14820;48.682;8.890;2023-02-15T07:48:55;20.67;;;11.95;;
26223;SDS011;14820;48.682;8.890;2023-02-15T07:51:21;20.67;;;11.27;;
26223;SDS011;14820;48.682;8.890;2023-02-15T07:53:47;24.08;;;12.75;;
26223;SDS011;14820;48.682;8.890;2023-02-15T07:56:14;24.83;;;12.50;;
26223;SDS011;14820;48.682;8.890;2023-02-15T07:58:40;19.85;;;11.60;;
26223;SDS011;14820;48.682;8.890;2023-02-15T08:01:24;21.48;;;12.60;;
26223;SDS011;14820;48.682;8.890;2023-02-15T08:03:50;20.70;;;11.75;;
26223;SDS011;14820;48.682;8.890;2023-02-15T08:06:16;20.25;;;11.23;;
26223;SDS011;14820;48.682;8.890;2023-02-15T08:08:42;22.55;;;12.63;;
26223;SDS011;14820;48.682;8.890;2023-02-15T08:13:57;21.45;;;12.52;;
26223;SDS011;14820;48.682;8.890;2023-02-15T08:16:35;20.48;;;11.70;;
26223;SDS011;14820;48.682;8.890;2023-02-15T08:19:06;21.55;;;12.50;;
26223;SDS011;14820;48.682;8.890;2023-02-15T08:21:33;29.92;;;13.75;;
26223;SDS011;14820;48.682;8.890;2023-02-15T08:24:00;24.55;;;12.55;;
26223;SDS011;14820;48.682;8.890;2023-02-15T08:26:26;21.75;;;12.45;;
26223;SDS011;14820;48.682;8.890;2023-02-15T08:28:53;24.00;;;13.02;;
26223;SDS011;14820;48.682;8.890;2023-02-15T08:31:19;21.73;;;11.40;;
26223;SDS011;14820;48.682;8.890;2023-02-15T08:33:46;24.73;;;12.70;;
26223;SDS011;14820;48.682;8.890;2023-02-15T08:36:17;26.55;;;14.13;;
26223;SDS011;14820;48.682;8.890;2023-02-15T08:38:44;28.67;;;12.88;;
26223;SDS011;14820;48.682;8.890;2023-02-15T08:43:44;22.48;;;12.27;;
26223;SDS011;14820;48.682;8.890;2023-02-15T08:46:10;23.00;;;13.80;;
26223;SDS011;14820;48.682;8.890;2023-02-15T08:48:37;24.40;;;12.25;;
26223;SDS011;14820;48.682;8.890;2023-02-15T08:51:11;18.63;;;11.25;;
26223;SDS011;14820;48.682;8.890;2023-02-15T08:53:38;22.92;;;11.93;;
26223;SDS011;14820;48.682;8.890;2023-02-15T08:56:04;19.40;;;10.73;;
26223;SDS011;14820;48.682;8.890;2023-02-15T08:58:30;21.70;;;11.82;;
26223;SDS011;14820;48.682;8.890;2023-02-15T09:00:56;17.40;;;10.85;;
26223;SDS011;14820;48.682;8.890;2023-02-15T09:03:26;19.23;;;10.85;;
26223;SDS011;14820;48.682;8.890;2023-02-15T09:05:56;20.02;;;11.70;;
26223;SDS011;14820;48.682;8.890;2023-02-15T09:08:22;18.73;;;10.63;;
26223;SDS011;14820;48.682;8.890;2023-02-15T09:10:48;22.23;;;11.95;;
26223;SDS011;14820;48.682;8.890;2023-02-15T09:13:14;20.25;;;11.77;;
26223;SDS011;14820;48.682;8.890;2023-02-15T09:15:40;22.90;;;12.10;;
26223;SDS011;14820;48.682;8.890;2023-02-15T09:18:08;26.02;;;12.02;;
26223;SDS011;14820;48.682;8.890;2023-02-15T09:20:36;22.63;;;12.40;;
26223;SDS011;14820;48.682;8.890;2023-02-15T09:23:02;21.58;;;12.75;;
26223;SDS011;14820;48.682;8.890;2023-02-15T09:25:28;22.48;;;12.57;;
26223;SDS011;14820;48.682;8.890;2023-02-15T09:27:54;22.42;;;13.07;;
26223;SDS011;14820;48.682;8.890;2023-02-15T09:30:20;25.27;;;14.35;;
26223;SDS011;14820;48.682;8.890;2023-02-15T09:32:47;26.95;;;14.25;;
26223;SDS011;14820;48.682;8.890;2023-02-15T09:35:12;25.45;;;14.10;;
26223;SDS011;14820;48.682;8.890;2023-02-15T09:37:38;22.63;;;13.10;;
26223;SDS011;14820;48.682;8.890;2023-02-15T09:40:04;24.38;;;12.00;;
26223;SDS011;14820;48.682;8.890;2023-02-15T09:47:53;19.83;;;11.48;;
26223;SDS011;14820;48.682;8.890;2023-02-15T09:56:12;20.27;;;11.05;;
26223;SDS011;14820;48.682;8.890;2023-02-15T10:28:26;10.77;;;6.88;;
26223;SDS011;14820;48.682;8.890;2023-02-15T10:33:46;12.43;;;6.82;;
26223;SDS011;14820;48.682;8.890;2023-02-15T10:36:28;9.70;;;6.10;;
26223;SDS011;14820;48.682;8.890;2023-02-15T10:44:46;12.13;;;6.60;;
26223;SDS011;14820;48.682;8.890;2023-02-15T11:00:51;8.18;;;5.65;;
26223;SDS011;14820;48.682;8.890;2023-02-15T11:06:18;8.63;;;5.20;;
26223;SDS011;14820;48.682;8.890;2023-02-15T11:08:46;10.85;;;5.47;;
26223;SDS011;14820;48.682;8.890;2023-02-15T11:11:23;9.75;;;5.22;;
26223;SDS011;14820;48.682;8.890;2023-02-15T11:13:54;7.60;;;5.05;;
26223;SDS011;14820;48.682;8.890;2023-02-15T11:16:32;10.77;;;4.85;;
26223;SDS011;14820;48.682;8.890;2023-02-15T11:19:03;9.32;;;5.25;;
26223;SDS011;14820;48.682;8.890;2023-02-15T11:21:40;8.93;;;5.13;;
26223;SDS011;14820;48.682;8.890;2023-02-15T11:24:15;10.35;;;5.45;;
26223;SDS011;14820;48.682;8.890;2023-02-15T11:26:47;8.48;;;4.90;;
26223;SDS011;14820;48.682;8.890;2023-02-15T11:29:22;11.70;;;5.43;;
26223;SDS011;14820;48.682;8.890;2023-02-15T11:31:55;12.02;;;5.18;;
26223;SDS011;14820;48.682;8.890;2023-02-15T11:34:30;8.25;;;4.65;;
26223;SDS011;14820;48.682;8.890;2023-02-15T11:37:06;9.40;;;4.85;;
26223;SDS011;14820;48.682;8.890;2023-02-15T11:39:35;9.00;;;4.80;;
26223;SDS011;14820;48.682;8.890;2023-02-15T11:42:04;7.38;;;4.38;;
26223;SDS011;14820;48.682;8.890;2023-02-15T11:44:34;6.68;;;3.97;;
26223;SDS011;14820;48.682;8.890;2023-02-15T11:47:02;7.32;;;4.30;;
26223;SDS011;14820;48.682;8.890;2023-02-15T11:49:32;8.55;;;4.25;;
26223;SDS011;14820;48.682;8.890;2023-02-15T11:52:10;5.18;;;3.50;;
26223;SDS011;14820;48.682;8.890;2023-02-15T11:54:40;9.98;;;3.92;;
26223;SDS011;14820;48.682;8.890;2023-02-15T11:59:39;5.65;;;3.80;;
26223;SDS011;14820;48.682;8.890;2023-02-15T12:02:14;7.00;;;3.80;;
26223;SDS011;14820;48.682;8.890;2023-02-15T12:04:43;5.05;;;3.40;;
26223;SDS011;14820;48.682;8.890;2023-02-15T12:07:19;6.63;;;3.15;;
26223;SDS011;14820;48.682;8.890;2023-02-15T12:12:28;6.28;;;3.50;;
26223;SDS011;14820;48.682;8.890;2023-02-15T12:14:58;5.47;;;3.25;;
26223;SDS011;14820;48.682;8.890;2023-02-15T12:17:32;5.63;;;3.38;;
26223;SDS011;14820;48.682;8.890;2023-02-15T12:20:03;7.82;;;4.00;;
26223;SDS011;14820;48.682;8.890;2023-02-15T12:22:39;9.40;;;4.35;;
26223;SDS011;14820;48.682;8.890;2023-02-15T12:25:23;8.35;;;4.07;;
26223;SDS011;14820;48.682;8.890;2023-02-15T12:27:54;7.82;;;4.47;;
26223;SDS011;14820;48.682;8.890;2023-02-15T12:30:30;8.05;;;4.18;;
26223;SDS011;14820;48.682;8.890;2023-02-15T12:33:15;8.05;;;4.38;;
26223;SDS011;14820;48.682;8.890;2023-02-15T12:36:03;6.47;;;3.97;;
26223;SDS011;14820;48.682;8.890;2023-02-15T12:38:37;7.20;;;4.50;;
26223;SDS011;14820;48.682;8.890;2023-02-15T12:41:04;6.38;;;3.78;;
26223;SDS011;14820;48.682;8.890;2023-02-15T12:43:46;7.63;;;4.07;;
26223;SDS011;14820;48.682;8.890;2023-02-15T12:46:13;7.90;;;3.70;;
26223;SDS011;14820;48.682;8.890;2023-02-15T12:48:44;6.85;;;3.70;;
26223;SDS011;14820;48.682;8.890;2023-02-15T12:51:12;7.00;;;3.83;;
26223;SDS011;14820;48.682;8.890;2023-02-15T12:53:40;8.02;;;3.92;;
26223;SDS011;14820;48.682;8.890;2023-02-15T12:56:07;5.95;;;3.80;;
26223;SDS011;14820;48.682;8.890;2023-02-15T12:58:34;4.78;;;3.33;;
26223;SDS011;14820;48.682;8.890;2023-02-15T13:03:27;5.55;;;3.38;;
26223;SDS011;14820;48.682;8.890;2023-02-15T13:05:53;5.05;;;2.80;;
26223;SDS011;14820;48.682;8.890;2023-02-15T13:08:21;5.03;;;2.92;;
26223;SDS011;14820;48.682;8.890;2023-02-15T13:10:57;6.03;;;3.00;;
26223;SDS011;14820;48.682;8.890;2023-02-15T13:13:26;4.13;;;2.60;;
26223;SDS011;14820;48.682;8.890;2023-02-15T13:15:58;8.02;;;2.75;;
26223;SDS011;14820;48.682;8.890;2023-02-15T13:18:43;7.85;;;2.90;;
26223;SDS011;14820;48.682;8.890;2023-02-15T13:21:13;3.42;;;2.40;;
26223;SDS011;14820;48.682;8.890;2023-02-15T13:23:46;5.43;;;2.67;;
26223;SDS011;14820;48.682;8.890;2023-02-15T13:26:20;4.20;;;2.47;;
26223;SDS011;14820;48.682;8.890;2023-02-15T13:28:49;6.55;;;2.75;;
26223;SDS011;14820;48.682;8.890;2023-02-15T13:31:21;6.15;;;2.90;;
26223;SDS011;14820;48.682;8.890;2023-02-15T13:39:26;6.32;;;2.90;;
26223;SDS011;14820;48.682;8.890;2023-02-15T13:42:00;5.47;;;2.97;;
26223;SDS011;14820;48.682;8.890;2023-02-15T13:47:22;9.20;;;2.90;;
26223;SDS011;14820;48.682;8.890;2023-02-15T13:52:58;8.10;;;3.20;;
26223;SDS011;14820;48.682;8.890;2023-02-15T14:01:55;8.82;;;2.88;;
26223;SDS011;14820;48.682;8.890;2023-02-15T14:04:21;4.95;;;2.95;;
26223;SDS011;14820;48.682;8.890;2023-02-15T14:21:16;13.15;;;6.55;;
26223;SDS011;14820;48.682;8.890;2023-02-15T14:26:34;6.95;;;4.00;;
26223;SDS011;14820;48.682;8.890;2023-02-15T14:31:51;7.38;;;3.95;;
26223;SDS011;14820;48.682;8.890;2023-02-15T14:34:29;9.55;;;3.80;;
26223;SDS011;14820;48.682;8.890;2023-02-15T14:37:02;4.80;;;3.63;;
26223;SDS011;14820;48.682;8.890;2023-02-15T14:42:43;8.77;;;4.30;;
26223;SDS011;14820;48.682;8.890;2023-02-15T14:45:27;11.38;;;4.50;;
26223;SDS011;14820;48.682;8.890;2023-02-15T14:48:57;11.20;;;3.67;;
26223;SDS011;14820;48.682;8.890;2023-02-15T14:50:51;7.30;;;3.60;;
26223;SDS011;14820;48.682;8.890;2023-02-15T14:55:47;17.35;;;4.70;;
26223;SDS011;14820;48.682;8.890;2023-02-15T14:58:15;9.85;;;4.53;;
26223;SDS011;14820;48.682;8.890;2023-02-15T15:00:41;10.70;;;4.55;;
26223;SDS011;14820;48.682;8.890;2023-02-15T15:03:23;8.32;;;4.50;;
26223;SDS011;14820;48.682;8.890;2023-02-15T15:05:52;8.73;;;4.63;;
26223;SDS011;14820;48.682;8.890;2023-02-15T15:08:22;10.32;;;4.22;;
26223;SDS011;14820;48.682;8.890;2023-02-15T15:10:53;12.48;;;4.50;;
26223;SDS011;14820;48.682;8.890;2023-02-15T15:15:56;15.02;;;4.70;;
26223;SDS011;14820;48.682;8.890;2023-02-15T15:18:54;8.65;;;4.60;;
26223;SDS011;14820;48.682;8.890;2023-02-15T15:30:48;10.95;;;5.88;;
26223;SDS011;14820;48.682;8.890;2023-02-15T15:49:45;17.38;;;7.70;;
26223;SDS011;14820;48.682;8.890;2023-02-15T15:52:15;16.77;;;8.38;;
26223;SDS011;14820;48.682;8.890;2023-02-15T15:54:46;13.40;;;8.00;;
26223;SDS011;14820;48.682;8.890;2023-02-15T15:57:26;14.63;;;8.30;;
26223;SDS011;14820;48.682;8.890;2023-02-15T15:59:56;18.85;;;8.45;;
26223;SDS011;14820;48.682;8.890;2023-02-15T16:02:25;15.32;;;9.20;;
26223;SDS011;14820;48.682;8.890;2023-02-15T16:04:51;21.35;;;10.55;;
26223;SDS011;14820;48.682;8.890;2023-02-15T16:12:20;20.90;;;12.68;;
26223;SDS011;14820;48.682;8.890;2023-02-15T16:14:46;20.25;;;12.60;;
26223;SDS011;14820;48.682;8.890;2023-02-15T16:17:23;24.02;;;12.65;;
26223;SDS011;14820;48.682;8.890;2023-02-15T16:19:50;22.97;;;12.97;;
26223;SDS011;14820;48.682;8.890;2023-02-15T16:22:19;23.50;;;12.32;;
26223;SDS011;14820;48.682;8.890;2023-02-15T16:27:43;22.52;;;13.57;;
26223;SDS011;14820;48.682;8.890;2023-02-15T16:30:16;22.13;;;12.38;;
26223;SDS011;14820;48.682;8.890;2023-02-15T16:32:53;18.15;;;11.55;;
26223;SDS011;14820;48.682;8.890;2023-02-15T16:35:29;23.88;;;12.70;;
26223;SDS011;14820;48.682;8.890;2023-02-15T16:37:55;27.27;;;12.82;;
26223;SDS011;14820;48.682;8.890;2023-02-15T16:43:24;23.80;;;12.32;;
26223;SDS011;14820;48.682;8.890;2023-02-15T16:45:45;24.88;;;14.15;;
26223;SDS011;14820;48.682;8.890;2023-02-15T16:48:14;24.70;;;13.15;;
26223;SDS011;14820;48.682;8.890;2023-02-15T16:50:46;22.08;;;11.93;;
26223;SDS011;14820;48.682;8.890;2023-02-15T16:53:26;24.77;;;11.93;;
26223;SDS011;14820;48.682;8.890;2023-02-15T16:56:02;23.92;;;12.80;;
26223;SDS011;14820;48.682;8.890;2023-02-15T16:58:31;23.55;;;12.18;;
26223;SDS011;14820;48.682;8.890;2023-02-15T17:01:02;30.25;;;13.10;;
26223;SDS011;14820;48.682;8.890;2023-02-15T17:03:30;23.52;;;12.82;;
26223;SDS011;14820;48.682;8.890;2023-02-15T17:05:57;26.73;;;13.13;;
26223;SDS011;14820;48.682;8.890;2023-02-15T17:13:38;27.55;;;13.30;;
26223;SDS011;14820;48.682;8.890;2023-02-15T17:16:26;29.50;;;14.52;;
26223;SDS011;14820;48.682;8.890;2023-02-15T17:18:55;29.60;;;18.98;;
26223;SDS011;14820;48.682;8.890;2023-02-15T17:21:33;31.27;;;18.58;;
26223;SDS011;14820;48.682;8.890;2023-02-15T17:24:00;32.08;;;16.15;;
26223;SDS011;14820;48.682;8.890;2023-02-15T17:26:36;27.38;;;15.63;;
26223;SDS011;14820;48.682;8.890;2023-02-15T17:29:21;27.65;;;15.45;;
26223;SDS011;14820;48.682;8.890;2023-02-15T17:31:51;23.45;;;14.07;;
26223;SDS011;14820;48.682;8.890;2023-02-15T17:37:45;25.63;;;14.00;;
26223;SDS011;14820;48.682;8.890;2023-02-15T17:40:20;26.08;;;14.82;;
26223;SDS011;14820;48.682;8.890;2023-02-15T17:42:48;24.27;;;12.93;;
26223;SDS011;14820;48.682;8.890;2023-02-15T17:45:13;22.45;;;12.98;;
26223;SDS011;14820;48.682;8.890;2023-02-15T17:47:39;22.35;;;13.35;;
26223;SDS011;14820;48.682;8.890;2023-02-15T17:50:06;24.42;;;13.02;;
26223;SDS011;14820;48.682;8.890;2023-02-15T17:52:33;26.92;;;13.73;;
26223;SDS011;14820;48.682;8.890;2023-02-15T17:55:01;24.48;;;13.02;;
26223;SDS011;14820;48.682;8.890;2023-02-15T17:57:55;22.80;;;12.63;;
26223;SDS011;14820;48.682;8.890;2023-02-15T18:00:21;38.28;;;15.55;;
26223;SDS011;14820;48.682;8.890;2023-02-15T18:03:07;21.83;;;12.52;;
26223;SDS011;14820;48.682;8.890;2023-02-15T18:05:53;26.33;;;12.57;;
26223;SDS011;14820;48.682;8.890;2023-02-15T18:08:37;24.52;;;11.48;;
26223;SDS011;14820;48.682;8.890;2023-02-15T18:11:21;19.85;;;11.40;;
26223;SDS011;14820;48.682;8.890;2023-02-15T18:14:11;23.80;;;11.75;;
26223;SDS011;14820;48.682;8.890;2023-02-15T18:16:38;22.30;;;12.48;;